Strona główna
METAR-TAF:

METAR-TAF

Lotnisko :

Danbury Municipal Airport

Danbury, Connecticut, Stany Zjednoczone

Szerokość geograficzna: 41-22-18N, Długość geograficzna: 073-29-04W, wysokość: 139 m

Aktualna obserwacja pogody

Raport powstał 59 minut temu, godzina 18:53 UTC
Wiatr 7 kt od południe, zmienny między południowo-południowy wschód i południowo-południowy zachód
Temperatura 1°C
Wilgotność 55%
Ciśnienie 1031 hPa
Widzialność: 16.1 km
bezchmurnie

METAR: KDXR 081853Z 19007KT 150V210 10SM CLR 01/M07 A3044 RMK AO2 SLP312 T00111072

czas: 14:52 (19:52 UTC)


TAF: brakujący

Obserwacja i prognoza pogody dla ponad 4000 lotnisk (raport METAR i TAF).

Dostępne stacje oznaczono żółtymi i czerwonymi punktami na mapie.

Najedź kursorem aby zobaczyć nazwę stacji.

Kliknij aby zobaczyć obserwacje i prognozy pogody.

Aby zmienić mapę: kliknij na zielony przycisk z czarnym krzyżykiem, aby powiększyć; na zielony przycisk z myślnikiem, aby pomniejszyć; na zielone strzałki, aby przejść do map sąsiednich.


METAR-TAF: